Fayetteville, Indiana
Current Conditions -  °F | °C
As of 12:53 PM on Friday 24 Oct 2014 (Local Time) from KBMG Reporting Station
Overcast Overcast  
Wind Chill: 59°   Ceiling: 2500
Heat Index: 59°   Visibility: 10mi
Dew Point: 46°   Wind: 6mph
Humidity: 62%   Direction: 200°SSW
Pressure: 30.1"   Gusts: NA
Location:  38.8737°N, 86.4563°W
Report Text: KBMG 241653Z 20005KT 10SM OVC025 15/08 A3010 RMK AO2 SLP194 T01500078
Loading
Personal Weather Stations






























Interactive Weather Map
Tropical Storm Tracking
New forecast layout! Learn more

10-Day Weather Forecast

Advertisements
Track Severe Weather on mobile